KE6JPV Weather Reports


Display with metric or nautical units.
time (UTC)temp
F
wind
direction
speed
MPH
gust
MPH
rain 1hr
in
rain 24hr
in
rain mn
in
humidity
%
barometer
mb
20190326075214 49 157 0.0 0.0 0.00 0.00 0.00 65 1016.3
20190326074212 50 157 0.0 0.0 0.00 0.00 0.00 65 1016.7
20190326073212 49 157 0.0 0.0 0.00 0.00 0.00 65 1016.7
20190326072210 50 157 0.0 0.0 0.00 0.00 0.00 65 1016.3
20190326071210 50 157 0.0 0.0 0.00 0.00 0.00 64 1016.7
20190326070209 50 157 0.0 0.0 0.00 0.00 0.00 64 1016.6
20190326065208 50 157 0.0 0.0 0.00 0.00 0.00 64 1017.0
20190326064207 50 157 0.0 0.0 0.00 0.00 0.00 63 1016.6
20190326063205 50 157 0.0 0.0 0.00 0.00 0.00 63 1016.6
20190326062205 50 157 0.0 0.0 0.00 0.00 0.00 63 1016.6
20190326061204 50 157 0.0 0.0 0.00 0.00 0.00 62 1016.6
20190326060204 50 157 0.0 0.0 0.00 0.00 0.00 62 1016.9
20190326055202 50 157 0.0 0.0 0.00 0.00 0.00 61 1016.9
20190326054201 50 157 0.0 0.0 0.00 0.00 0.00 61 1016.9
20190326053200 51 157 0.0 0.0 0.00 0.00 0.00 61 1016.9
20190326052159 51 157 0.0 0.0 0.00 0.00 0.00 60 1016.9
20190326051158 51 157 0.0 0.0 0.00 0.00 0.00 60 1016.9
20190326050156 51 157 0.0 0.0 0.00 0.00 0.00 60 1016.9
20190326045156 52 157 0.0 0.0 0.00 0.00 0.00 59 1016.9
20190326044155 52 157 0.0 0.0 0.00 0.00 0.00 59 1016.9
20190326043154 52 180 0.0 0.0 0.00 0.00 0.00 59 1016.9
20190326042153 53 180 0.0 0.0 0.00 0.00 0.00 58 1016.6
20190326041152 53 180 0.0 3.0 0.00 0.00 0.00 58 1016.6
20190326040151 54 157 2.0 3.0 0.00 0.00 0.00 57 1016.2
20190326035150 54 176 2.0 3.0 0.00 0.00 0.00 58 1016.2
20190326034149 54 157 1.0 3.0 0.00 0.00 0.00 57 1015.9
20190326033148 55 161 2.0 3.0 0.00 0.00 0.00 57 1016.2
20190326032147 55 160 2.0 3.0 0.00 0.00 0.00 56 1015.9
20190326031145 56 180 1.0 2.0 0.00 0.00 0.00 56 1016.2
20190326030143 56 157 1.0 2.0 0.00 0.00 0.00 55 1015.9
20190326025143 57 180 0.0 0.0 0.00 0.00 0.00 54 1015.9
20190326024142 58 225 0.0 1.0 0.00 0.00 0.00 53 1015.9
20190326023141 60 180 0.0 8.0 0.00 0.00 0.00 52 1015.9
20190326022140 60 189 1.0 4.0 0.00 0.00 0.00 52 1015.6
20190326021139 61 183 2.0 6.0 0.00 0.00 0.00 52 1015.9
20190326020139 62 179 2.0 4.0 0.00 0.00 0.00 51 1015.6
20190326015138 63 199 2.0 3.0 0.00 0.00 0.00 50 1015.6
20190326014136 64 205 2.0 7.0 0.00 0.00 0.00 49 1015.9
20190326013135 65 201 2.0 5.0 0.00 0.00 0.00 48 1015.9
20190326012134 66 168 3.0 6.0 0.00 0.00 0.00 47 1015.9
20190326011134 67 173 3.0 5.0 0.00 0.00 0.00 46 1016.0
20190326010133 68 200 3.0 7.0 0.00 0.00 0.00 45 1016.0
20190326005132 69 229 3.0 6.0 0.00 0.00 0.00 44 1016.0
20190326004131 70 237 3.0 10.0 0.00 0.00 0.00 43 1016.0
20190326003131 71 215 3.0 8.0 0.00 0.00 0.00 41 1016.0
20190326002130 73 197 3.0 7.0 0.00 0.00 0.00 40 1016.0
20190326001129 75 215 4.0 8.0 0.00 0.00 0.00 39 1016.0
20190326000206 77 203 2.0 11.0 0.00 0.00 0.00 38 1016.0
20190325235128 79 205 6.0 10.0 0.00 0.00 0.00 36 1016.4
20190325234127 82 214 6.0 14.0 0.00 0.00 0.00 34 1016.4
20190325233125 83 211 4.0 15.0 0.00 0.00 0.00 34 1016.4
20190325232124 84 228 5.0 11.0 0.00 0.00 0.00 34 1016.4
20190325231123 83 195 5.0 9.0 0.00 0.00 0.00 35 1016.4
20190325230122 83 205 5.0 9.0 0.00 0.00 0.00 36 1016.4
20190325225121 80 200 6.0 11.0 0.00 0.00 0.00 39 1016.4
20190325224120 77 202 5.0 11.0 0.00 0.00 0.00 43 1016.4
20190325223120 77 207 6.0 11.0 0.00 0.00 0.00 43 1016.4
20190325222119 76 224 5.0 9.0 0.00 0.00 0.00 44 1016.4
20190325221118 76 218 4.0 11.0 0.00 0.00 0.00 44 1016.4
20190325220117 77 228 5.0 10.0 0.00 0.00 0.00 42 1016.4
20190325215116 77 179 6.0 12.0 0.00 0.00 0.00 41 1016.4
20190325214115 78 204 6.0 10.0 0.00 0.00 0.00 41 1016.4
20190325213115 78 215 5.0 10.0 0.00 0.00 0.00 41 1016.7
20190325212114 78 221 5.0 11.0 0.00 0.00 0.00 41 1016.7
20190325211113 78 221 5.0 12.0 0.00 0.00 0.00 42 1016.7
20190325210112 78 212 5.0 10.0 0.00 0.00 0.00 42 1016.7
20190325205110 77 196 4.0 12.0 0.00 0.00 0.00 41 1017.1
20190325204110 77 196 4.0 7.0 0.00 0.00 0.00 42 1017.1
20190325203108 77 147 2.0 12.0 0.00 0.00 0.00 42 1017.1
20190325202108 76 16 2.0 5.0 0.00 0.00 0.00 42 1017.0
20190325201107 75 236 2.0 9.0 0.00 0.00 0.00 42 1017.4
20190325200106 75 193 3.0 7.0 0.00 0.00 0.00 45 1017.4
20190325195105 74 135 0.0 5.0 0.00 0.00 0.00 46 1017.4
20190325194104 73 155 4.0 6.0 0.00 0.00 0.00 48 1017.4
20190325193102 72 165 3.0 5.0 0.00 0.00 0.00 48 1017.4
20190325192102 71 144 3.0 3.0 0.00 0.00 0.00 50 1017.7
20190325191101 71 243 2.0 4.0 0.00 0.00 0.00 52 1017.7
20190325190100 70 157 5.0 5.0 0.00 0.00 0.00 54 1017.7
20190325185059 70 156 2.0 9.0 0.00 0.00 0.00 55 1018.0
20190325184058 69 154 2.0 3.0 0.00 0.00 0.00 57 1018.3
20190325183057 68 184 1.0 4.0 0.00 0.00 0.00 59 1018.0
20190325182056 68 202 1.0 3.0 0.00 0.00 0.00 59 1018.3
20190325181055 67 45 0.0 2.0 0.00 0.00 0.00 61 1018.3
20190325180054 66 135 0.0 3.0 0.00 0.00 0.00 62 1018.7
20190325175053 65 333 1.0 2.0 0.00 0.00 0.00 63 1018.7
20190325174052 64 323 2.0 4.0 0.00 0.00 0.00 64 1019.0
20190325173052 64 150 2.0 4.0 0.00 0.00 0.00 65 1019.0
20190325172051 63 247 0.0 3.0 0.00 0.00 0.00 66 1019.0
20190325171050 62 157 1.0 2.0 0.00 0.00 0.00 68 1019.0
20190325170049 61 202 0.0 1.0 0.00 0.00 0.00 69 1019.3
20190325165048 60 157 0.0 1.0 0.00 0.00 0.00 70 1019.0
20190325164047 60 180 0.0 3.0 0.00 0.00 0.00 71 1019.0
20190325163046 59 343 1.0 2.0 0.00 0.00 0.00 72 1019.3
20190325162045 58 157 0.0 2.0 0.00 0.00 0.00 72 1019.3
20190325161044 57 14 1.0 3.0 0.00 0.00 0.00 73 1019.0
20190325160044 56 135 0.0 2.0 0.00 0.00 0.00 73 1018.6
20190325155043 56 22 0.0 2.0 0.00 0.00 0.00 74 1018.6
20190325154041 55 0 1.0 2.0 0.00 0.00 0.00 74 1018.3
20190325153041 54 16 1.0 4.0 0.00 0.00 0.00 75 1018.3
20190325152040 53 32 3.0 6.0 0.00 0.00 0.00 75 1018.3
20190325151039 52 0 1.0 2.0 0.00 0.00 0.00 75 1018.3
20190325150038 52 22 1.0 3.0 0.00 0.00 0.00 74 1018.3
20190325145038 51 22 1.0 2.0 0.00 0.00 0.00 74 1018.3
20190325144038 51 45 0.0 3.0 0.00 0.00 0.00 74 1017.9
20190325143036 51 157 0.0 0.0 0.00 0.00 0.00 74 1017.9
20190325142036 51 112 0.0 0.0 0.00 0.00 0.00 74 1017.9
20190325141034 51 157 0.0 0.0 0.00 0.00 0.00 74 1017.9
20190325140034 51 22 0.0 1.0 0.00 0.00 0.00 74 1017.9
20190325135033 51 15 1.0 3.0 0.00 0.00 0.00 74 1017.9
20190325134031 50 18 2.0 4.0 0.00 0.00 0.00 74 1017.6
20190325133031 50 0 0.0 0.0 0.00 0.00 0.00 74 1017.6
20190325132030 50 0 0.0 0.0 0.00 0.00 0.00 74 1018.0
20190325131029 51 45 0.0 4.0 0.00 0.00 0.00 74 1018.0
20190325130028 51 22 0.0 0.0 0.00 0.00 0.00 74 1018.0
20190325125027 51 247 0.0 0.0 0.00 0.00 0.00 74 1018.0
20190325124026 51 0 0.0 2.0 0.00 0.00 0.00 74 1018.0
20190325123025 51 337 1.0 3.0 0.00 0.00 0.00 74 1018.0
20190325122025 51 337 0.0 2.0 0.00 0.00 0.00 74 1018.0
20190325121024 50 22 3.0 3.0 0.00 0.00 0.00 73 1018.1
20190325120023 50 0 0.0 2.0 0.00 0.00 0.00 73 1018.4
20190325115023 50 315 0.0 2.0 0.00 0.00 0.00 73 1018.4
20190325114022 50 315 0.0 0.0 0.00 0.00 0.00 73 1018.5
20190325113021 50 0 0.0 0.0 0.00 0.00 0.00 72 1018.5
20190325112020 50 247 0.0 0.0 0.00 0.00 0.00 72 1018.5
20190325111019 50 247 0.0 0.0 0.00 0.00 0.00 72 1018.5
20190325110018 51 247 0.0 0.0 0.00 0.00 0.00 72 1018.8
20190325105017 50 247 0.0 0.0 0.00 0.00 0.00 72 1018.8
20190325104016 51 247 0.0 0.0 0.00 0.00 0.00 72 1018.7
20190325103015 51 247 0.0 0.0 0.00 0.00 0.00 72 1018.7
20190325102014 50 247 0.0 0.0 0.00 0.00 0.00 72 1018.7
20190325101013 50 247 0.0 0.0 0.00 0.00 0.00 71 1018.7
20190325100013 50 247 0.0 0.0 0.00 0.00 0.00 71 1019.0
20190325095012 50 247 0.0 0.0 0.00 0.00 0.00 71 1019.0
20190325094011 50 247 0.0 0.0 0.00 0.00 0.00 71 1019.4
20190325093010 50 247 0.0 0.0 0.00 0.00 0.00 70 1019.4
20190325092009 49 247 0.0 0.0 0.00 0.00 0.00 70 1019.4
20190325091008 50 247 0.0 0.0 0.00 0.00 0.00 70 1019.4
20190325090008 49 247 0.0 0.0 0.00 0.00 0.00 70 1019.4
20190325085007 49 247 0.0 0.0 0.00 0.00 0.00 70 1019.7
20190325084006 49 247 0.0 0.0 0.00 0.00 0.00 70 1019.7
20190325083005 49 247 0.0 0.0 0.00 0.00 0.00 69 1019.7
20190325082004 49 247 0.0 0.0 0.00 0.00 0.00 69 1019.7
20190325075633 50 247 0.0 0.0 0.00 0.00 0.00 68 1019.7